createdAt,value
2022-12-03T00:01:22.478Z,84.47
2022-12-03T00:03:50.296Z,84.07
2022-12-03T00:06:18.998Z,84.20
2022-12-03T00:08:46.742Z,84.19
2022-12-03T00:11:14.424Z,84.38
2022-12-03T00:13:42.053Z,83.77
2022-12-03T00:16:09.801Z,83.56
2022-12-03T00:18:37.621Z,84.13
2022-12-03T00:21:05.438Z,83.96
2022-12-03T00:23:37.100Z,84.04
2022-12-03T00:26:08.122Z,83.97
2022-12-03T00:28:35.760Z,83.70
2022-12-03T00:31:03.507Z,83.57
2022-12-03T00:33:31.364Z,83.02
2022-12-03T00:35:59.051Z,83.29
2022-12-03T00:38:26.692Z,83.54
2022-12-03T00:40:54.541Z,83.42
2022-12-03T00:43:22.239Z,83.70
2022-12-03T00:45:49.907Z,83.39
2022-12-03T00:48:17.658Z,83.56
2022-12-03T00:50:45.331Z,82.91
2022-12-03T00:53:12.973Z,82.86
2022-12-03T00:55:40.639Z,83.15
2022-12-03T00:58:09.659Z,83.23
2022-12-03T01:00:38.049Z,83.19
2022-12-03T01:03:05.928Z,83.15
2022-12-03T01:05:33.593Z,83.05
2022-12-03T01:08:01.233Z,82.90
2022-12-03T01:10:28.863Z,83.17
2022-12-03T01:12:56.567Z,83.21
2022-12-03T01:15:24.274Z,82.85
2022-12-03T01:17:51.968Z,83.00
2022-12-03T01:20:19.844Z,82.81
2022-12-03T01:22:47.512Z,82.59
2022-12-03T01:25:15.299Z,82.55
2022-12-03T01:27:42.974Z,82.79
2022-12-03T01:30:13.184Z,82.67
2022-12-03T01:32:40.837Z,82.76
2022-12-03T01:35:08.733Z,82.59
2022-12-03T01:37:36.380Z,82.94
2022-12-03T01:40:05.668Z,83.20
2022-12-03T01:42:37.996Z,82.72
2022-12-03T01:45:06.462Z,83.46
2022-12-03T01:47:39.016Z,83.13
2022-12-03T01:50:20.508Z,83.35
2022-12-03T01:52:48.396Z,83.81
2022-12-03T01:55:20.909Z,83.95
2022-12-03T01:57:52.486Z,84.03
2022-12-03T02:00:23.313Z,83.95
2022-12-03T02:02:54.338Z,83.76
2022-12-03T02:05:25.171Z,83.90
2022-12-03T02:07:53.413Z,83.65
2022-12-03T02:10:27.763Z,84.21
2022-12-03T02:13:09.059Z,83.97
2022-12-03T02:15:39.253Z,84.19
2022-12-03T02:18:09.101Z,83.93
2022-12-03T02:20:46.956Z,83.95
2022-12-03T02:23:30.544Z,83.79
2022-12-03T02:25:58.334Z,83.57
2022-12-03T02:28:26.300Z,83.53
2022-12-03T02:30:54.156Z,83.22
2022-12-03T02:33:22.034Z,82.94
2022-12-03T02:35:50.064Z,83.04
2022-12-03T02:38:21.231Z,82.86
2022-12-03T02:40:52.744Z,82.74
2022-12-03T02:43:22.750Z,82.73
2022-12-03T02:45:56.393Z,82.51
2022-12-03T02:48:36.080Z,82.68
2022-12-03T02:51:07.537Z,82.09
2022-12-03T02:53:45.766Z,82.55
2022-12-03T02:56:17.130Z,82.70
2022-12-03T02:58:48.145Z,82.80
2022-12-03T03:01:19.456Z,83.12
2022-12-03T03:03:49.871Z,83.42
2022-12-03T03:06:20.133Z,83.56
2022-12-03T03:08:47.861Z,83.62
2022-12-03T03:11:15.593Z,83.69
2022-12-03T03:13:43.469Z,83.69
2022-12-03T03:16:11.331Z,83.57
2022-12-03T03:18:39.267Z,83.61
2022-12-03T03:21:07.571Z,83.35
2022-12-03T03:23:35.661Z,83.39
2022-12-03T03:26:11.105Z,83.29
2022-12-03T03:28:41.676Z,83.30
2022-12-03T03:31:12.338Z,83.07
2022-12-03T03:33:42.661Z,82.86
2022-12-03T03:36:10.985Z,82.85
2022-12-03T03:38:40.223Z,82.78
2022-12-03T03:41:10.392Z,82.83
2022-12-03T03:43:40.236Z,82.80
2022-12-03T03:46:08.629Z,82.71
2022-12-03T03:48:36.970Z,82.73
2022-12-03T03:51:09.845Z,82.40
2022-12-03T03:53:43.940Z,82.14
2022-12-03T03:56:12.083Z,82.28
2022-12-03T03:58:39.979Z,82.41
2022-12-03T04:01:08.397Z,82.06
2022-12-03T04:03:36.625Z,82.26
2022-12-03T04:06:04.543Z,82.33
2022-12-03T04:08:32.750Z,82.24
2022-12-03T04:11:19.300Z,82.21
2022-12-03T04:13:46.979Z,82.33
2022-12-03T04:16:14.669Z,82.43
2022-12-03T04:18:45.321Z,82.67
2022-12-03T04:21:39.099Z,83.24
2022-12-03T04:24:08.188Z,83.12
2022-12-03T04:26:54.358Z,82.98
2022-12-03T04:29:22.806Z,82.74
2022-12-03T04:32:09.168Z,83.13
2022-12-03T04:34:56.059Z,83.06
2022-12-03T04:37:23.936Z,83.10
2022-12-03T04:39:51.693Z,83.14
2022-12-03T04:42:19.419Z,83.13
2022-12-03T04:44:47.110Z,83.34
2022-12-03T04:47:20.761Z,83.46
2022-12-03T04:49:52.648Z,83.70
2022-12-03T04:52:22.028Z,83.88
2022-12-03T04:54:49.709Z,84.39
2022-12-03T04:57:17.525Z,84.02
2022-12-03T04:59:45.150Z,84.46
2022-12-03T05:02:12.802Z,84.73
2022-12-03T05:04:40.505Z,84.90
2022-12-03T05:07:08.096Z,84.98
2022-12-03T05:09:35.725Z,84.98
2022-12-03T05:12:03.395Z,85.04
2022-12-03T05:14:31.075Z,84.96
2022-12-03T05:16:58.749Z,84.90
2022-12-03T05:19:46.391Z,85.05
2022-12-03T05:22:14.045Z,84.84
2022-12-03T05:24:41.685Z,84.72
2022-12-03T05:27:09.442Z,84.76
2022-12-03T05:29:37.065Z,84.61
2022-12-03T05:32:05.690Z,84.67
2022-12-03T05:34:33.333Z,84.68
2022-12-03T05:37:00.940Z,84.69
2022-12-03T05:39:28.596Z,84.80
2022-12-03T05:42:14.799Z,84.43
2022-12-03T05:44:42.515Z,84.35
2022-12-03T05:47:10.203Z,84.52
2022-12-03T05:49:37.869Z,84.71
2022-12-03T05:52:05.935Z,84.55
2022-12-03T05:54:33.633Z,84.57
2022-12-03T05:57:01.248Z,84.81
2022-12-03T05:59:28.863Z,84.84
2022-12-03T06:01:56.712Z,85.70
2022-12-03T06:04:24.323Z,85.46
2022-12-03T06:06:51.937Z,85.15
2022-12-03T06:09:19.525Z,85.03
2022-12-03T06:11:47.207Z,84.96
2022-12-03T06:14:14.932Z,84.91
2022-12-03T06:16:42.630Z,84.87
2022-12-03T06:19:10.268Z,84.64
2022-12-03T06:21:37.896Z,84.53
2022-12-03T06:24:05.695Z,84.37
2022-12-03T06:26:33.280Z,84.61
2022-12-03T06:29:00.980Z,84.36
2022-12-03T06:31:29.210Z,84.08
2022-12-03T06:33:56.850Z,84.14
2022-12-03T06:36:24.557Z,83.86
2022-12-03T06:38:52.253Z,83.68
2022-12-03T06:41:19.874Z,83.54
2022-12-03T06:43:47.601Z,83.82
2022-12-03T06:46:15.261Z,83.59
2022-12-03T06:48:42.969Z,83.41
2022-12-03T06:51:10.625Z,83.35
2022-12-03T06:53:38.281Z,83.20
2022-12-03T06:56:06.233Z,83.53
2022-12-03T06:58:33.900Z,83.47
2022-12-03T07:01:01.563Z,83.62
2022-12-03T07:03:29.208Z,83.38
2022-12-03T07:05:56.923Z,83.51
2022-12-03T07:08:24.579Z,83.51
2022-12-03T07:10:52.265Z,83.54
2022-12-03T07:13:19.904Z,83.36
2022-12-03T07:15:47.698Z,83.44
2022-12-03T07:18:15.438Z,83.41
2022-12-03T07:20:43.029Z,83.59
2022-12-03T07:23:10.722Z,83.33
2022-12-03T07:25:38.585Z,83.43
2022-12-03T07:28:06.421Z,83.81
2022-12-03T07:30:34.169Z,83.65
2022-12-03T07:33:01.779Z,83.58
2022-12-03T07:35:29.442Z,83.80
2022-12-03T07:37:57.071Z,83.75
2022-12-03T07:40:24.727Z,83.64
2022-12-03T07:42:52.364Z,83.88
2022-12-03T07:45:19.983Z,83.58
2022-12-03T07:47:47.551Z,83.74
2022-12-03T07:50:15.252Z,83.91
2022-12-03T07:52:42.871Z,83.76
2022-12-03T07:55:12.688Z,83.81
2022-12-03T07:57:40.700Z,83.92
2022-12-03T08:00:08.907Z,83.81
2022-12-03T08:02:37.717Z,83.88
2022-12-03T08:05:05.768Z,83.85
2022-12-03T08:07:33.514Z,83.74
2022-12-03T08:10:01.288Z,83.89
2022-12-03T08:12:46.793Z,83.21
2022-12-03T08:15:19.189Z,83.32
2022-12-03T08:17:52.604Z,83.03
2022-12-03T08:20:22.655Z,83.07
2022-12-03T08:22:54.443Z,83.30
2022-12-03T08:25:26.681Z,82.75
2022-12-03T08:27:59.044Z,83.01
2022-12-03T08:30:26.688Z,83.01
2022-12-03T08:32:54.841Z,83.10
2022-12-03T08:35:25.332Z,83.58
2022-12-03T08:38:12.328Z,82.71
2022-12-03T08:40:46.705Z,82.36
2022-12-03T08:43:26.541Z,82.94
2022-12-03T08:45:56.473Z,82.57
2022-12-03T08:48:44.050Z,82.12
2022-12-03T08:51:22.414Z,82.08
2022-12-03T08:53:58.141Z,82.28
2022-12-03T08:56:30.600Z,82.04
2022-12-03T08:59:21.207Z,82.19
2022-12-03T09:01:50.236Z,81.73
2022-12-03T09:04:32.004Z,81.96
2022-12-03T09:06:59.924Z,81.88
2022-12-03T09:09:27.999Z,81.57
2022-12-03T09:11:56.214Z,81.48
2022-12-03T09:14:24.668Z,81.45
2022-12-03T09:16:56.698Z,80.88
2022-12-03T09:19:26.608Z,81.50
2022-12-03T09:21:55.662Z,81.29
2022-12-03T09:24:24.195Z,81.22
2022-12-03T09:26:52.016Z,81.43
2022-12-03T09:29:19.695Z,81.33
2022-12-03T09:31:47.429Z,80.93
2022-12-03T09:34:15.157Z,81.25
2022-12-03T09:36:42.780Z,81.29
2022-12-03T09:39:10.444Z,81.26
2022-12-03T09:41:38.250Z,81.10
2022-12-03T09:44:08.652Z,81.18
2022-12-03T09:46:40.799Z,80.99
2022-12-03T09:49:15.848Z,80.95
2022-12-03T09:51:45.630Z,80.66
2022-12-03T09:54:25.488Z,80.73
2022-12-03T09:56:55.096Z,80.54
2022-12-03T09:59:24.711Z,80.16
2022-12-03T10:01:54.212Z,80.17
2022-12-03T10:04:22.229Z,80.67
2022-12-03T10:06:50.049Z,80.69
2022-12-03T10:09:24.684Z,80.57
2022-12-03T10:11:52.556Z,80.10
2022-12-03T10:14:21.160Z,80.01
2022-12-03T10:16:49.410Z,79.98
2022-12-03T10:19:24.501Z,80.41
2022-12-03T10:21:52.484Z,80.50
2022-12-03T10:24:31.708Z,80.26
2022-12-03T10:27:02.172Z,80.12
2022-12-03T10:29:34.284Z,80.23
2022-12-03T10:32:09.683Z,80.27
2022-12-03T10:34:39.289Z,80.02
2022-12-03T10:37:21.153Z,79.85
2022-12-03T10:39:56.196Z,80.03
2022-12-03T10:42:25.348Z,79.75
2022-12-03T10:45:18.196Z,79.18
2022-12-03T10:48:04.821Z,79.48
2022-12-03T10:50:32.765Z,79.20
2022-12-03T10:53:00.585Z,78.62
2022-12-03T10:55:30.798Z,79.25
2022-12-03T10:57:58.629Z,79.35
2022-12-03T11:00:26.461Z,79.14
2022-12-03T11:02:56.972Z,78.49
2022-12-03T11:06:52.856Z,78.73
2022-12-03T11:09:28.349Z,78.64
2022-12-03T11:11:56.246Z,78.36
2022-12-03T11:15:07.233Z,78.30
2022-12-03T11:17:45.762Z,77.98
2022-12-03T11:20:22.550Z,78.20
2022-12-03T11:23:01.004Z,77.70
2022-12-03T11:25:28.667Z,78.35
2022-12-03T11:28:11.494Z,78.43
2022-12-03T11:31:03.303Z,78.18
2022-12-03T11:33:32.177Z,78.25
2022-12-03T11:36:05.572Z,77.99
2022-12-03T11:38:39.397Z,77.97
2022-12-03T11:41:19.734Z,78.34
2022-12-03T11:43:53.477Z,78.32
2022-12-03T11:46:25.094Z,78.59
2022-12-03T11:48:55.965Z,78.33
2022-12-03T11:51:26.292Z,78.25
2022-12-03T11:53:57.577Z,78.21
2022-12-03T11:56:28.659Z,77.98
2022-12-03T11:59:04.937Z,78.17
2022-12-03T12:01:38.592Z,77.95
2022-12-03T12:04:08.189Z,78.40
2022-12-03T12:06:50.166Z,78.32
2022-12-03T12:09:54.017Z,77.70
2022-12-03T12:12:37.870Z,77.94
2022-12-03T12:15:39.489Z,77.80
2022-12-03T12:18:38.058Z,77.67
2022-12-03T12:21:48.699Z,77.64
2022-12-03T12:24:46.909Z,77.76
2022-12-03T12:27:18.039Z,77.70
2022-12-03T12:29:51.325Z,77.76
2022-12-03T12:32:24.222Z,77.69
2022-12-03T12:34:55.055Z,77.75
2022-12-03T12:37:31.788Z,77.73
2022-12-03T12:39:59.750Z,77.62
2022-12-03T12:42:31.892Z,77.64
2022-12-03T12:45:21.695Z,77.62
2022-12-03T12:47:54.806Z,77.58
2022-12-03T12:50:22.593Z,77.67
2022-12-03T12:52:53.918Z,77.50
2022-12-03T12:55:23.918Z,77.15
2022-12-03T12:57:52.216Z,77.58
2022-12-03T13:00:24.599Z,77.72
2022-12-03T13:02:57.900Z,77.44
2022-12-03T13:05:28.885Z,77.69
2022-12-03T13:07:57.081Z,77.82
2022-12-03T13:10:33.823Z,77.83
2022-12-03T13:13:44.537Z,77.92
2022-12-03T13:16:24.369Z,78.14
2022-12-03T13:18:56.763Z,78.09
2022-12-03T13:21:34.997Z,78.15
2022-12-03T13:24:03.219Z,77.99
2022-12-03T13:26:38.165Z,78.06
2022-12-03T13:29:16.626Z,78.21
2022-12-03T13:31:53.164Z,78.34
2022-12-03T13:34:24.464Z,78.33
2022-12-03T13:36:57.999Z,78.50
2022-12-03T13:39:33.434Z,78.56
2022-12-03T13:42:35.603Z,78.47
2022-12-03T13:45:07.717Z,78.34
2022-12-03T13:47:35.394Z,78.56
2022-12-03T13:50:11.240Z,78.37
2022-12-03T13:52:39.020Z,78.53
2022-12-03T13:55:12.237Z,78.41
2022-12-03T13:57:39.950Z,78.70
2022-12-03T14:00:08.330Z,78.51
2022-12-03T14:02:36.128Z,78.58
2022-12-03T14:05:04.251Z,78.61
2022-12-03T14:07:31.997Z,78.73
2022-12-03T14:09:59.740Z,78.76
2022-12-03T14:12:27.425Z,78.76
2022-12-03T14:14:55.599Z,78.72
2022-12-03T14:17:23.301Z,78.52
2022-12-03T14:19:51.190Z,78.81
2022-12-03T14:22:20.580Z,78.62
2022-12-03T14:24:48.249Z,78.59
2022-12-03T14:27:15.950Z,78.52
2022-12-03T14:29:43.674Z,78.65
2022-12-03T14:32:11.397Z,78.46
2022-12-03T14:34:39.187Z,78.17
2022-12-03T14:37:06.929Z,78.12
2022-12-03T14:39:34.516Z,78.25
2022-12-03T14:42:14.597Z,78.26
2022-12-03T14:44:47.832Z,78.12
2022-12-03T14:47:18.065Z,78.18
2022-12-03T14:49:45.963Z,78.12
2022-12-03T14:52:13.779Z,78.12
2022-12-03T14:54:43.315Z,78.20
2022-12-03T14:57:13.663Z,78.28
2022-12-03T14:59:42.782Z,78.43
2022-12-03T15:02:11.772Z,78.36
2022-12-03T15:04:40.984Z,78.47
2022-12-03T15:07:09.741Z,78.74
2022-12-03T15:09:37.708Z,78.65
2022-12-03T15:12:05.777Z,78.71
2022-12-03T15:14:33.518Z,78.86
2022-12-03T15:17:01.403Z,78.76
2022-12-03T15:19:29.145Z,78.92
2022-12-03T15:21:56.979Z,78.58
2022-12-03T15:24:24.762Z,78.75
2022-12-03T15:26:54.465Z,78.61
2022-12-03T15:29:22.761Z,78.48
2022-12-03T15:31:50.564Z,78.60
2022-12-03T15:34:22.482Z,78.43
2022-12-03T15:36:50.704Z,78.30
2022-12-03T15:39:18.645Z,78.47
2022-12-03T15:41:46.559Z,78.56
2022-12-03T15:44:14.265Z,78.56
2022-12-03T15:46:42.100Z,78.61
2022-12-03T15:49:09.965Z,78.51
2022-12-03T15:51:37.730Z,78.80
2022-12-03T15:54:05.623Z,78.69
2022-12-03T15:56:33.758Z,78.73
2022-12-03T15:59:01.565Z,78.84
2022-12-03T16:01:29.246Z,78.71
2022-12-03T16:03:56.910Z,79.01
2022-12-03T16:06:24.678Z,78.98
2022-12-03T16:08:52.478Z,79.08
2022-12-03T16:11:20.231Z,79.22
2022-12-03T16:13:48.013Z,79.20
2022-12-03T16:16:15.922Z,79.18
2022-12-03T16:18:43.681Z,79.40
2022-12-03T16:21:11.404Z,79.57
2022-12-03T16:23:39.207Z,79.53
2022-12-03T16:26:07.023Z,79.68
2022-12-03T16:28:34.699Z,79.58
2022-12-03T16:31:02.393Z,79.62
2022-12-03T16:33:30.093Z,79.74
2022-12-03T16:35:57.856Z,79.73
2022-12-03T16:38:25.512Z,80.00
2022-12-03T16:40:53.216Z,80.01
2022-12-03T16:43:20.873Z,79.91
2022-12-03T16:45:57.687Z,79.99
2022-12-03T16:48:25.375Z,80.10
2022-12-03T16:50:54.350Z,80.25
2022-12-03T16:53:22.025Z,80.42
2022-12-03T16:55:49.639Z,80.86
2022-12-03T16:58:19.960Z,80.70
2022-12-03T17:00:48.399Z,81.23
2022-12-03T17:03:16.966Z,80.89
2022-12-03T17:05:45.493Z,80.79
2022-12-03T17:08:13.442Z,80.93
2022-12-03T17:10:41.362Z,80.91
2022-12-03T17:13:10.568Z,81.26
2022-12-03T17:15:39.592Z,81.10
2022-12-03T17:18:08.176Z,81.77
2022-12-03T17:20:36.046Z,81.40
2022-12-03T17:23:04.134Z,81.35
2022-12-03T17:25:32.090Z,81.46
2022-12-03T17:27:59.762Z,81.26
2022-12-03T17:30:27.708Z,81.42
2022-12-03T17:32:55.314Z,81.50
2022-12-03T17:35:22.965Z,81.43
2022-12-03T17:37:50.856Z,81.78
2022-12-03T17:40:18.885Z,81.68
2022-12-03T17:42:46.866Z,81.47
2022-12-03T17:45:14.932Z,81.75
2022-12-03T17:47:42.731Z,81.85
2022-12-03T17:50:10.846Z,81.70
2022-12-03T17:52:38.649Z,81.58
2022-12-03T17:55:14.012Z,81.56
2022-12-03T17:57:45.707Z,81.47
2022-12-03T18:00:14.063Z,81.43
2022-12-03T18:02:41.917Z,81.48
2022-12-03T18:05:10.520Z,81.57
2022-12-03T18:07:38.260Z,81.62
2022-12-03T18:10:06.944Z,81.64
2022-12-03T18:12:34.850Z,81.86
2022-12-03T18:15:02.514Z,82.06
2022-12-03T18:17:30.207Z,82.12
2022-12-03T18:19:58.216Z,82.52
2022-12-03T18:22:28.673Z,82.17
2022-12-03T18:24:56.793Z,81.83
2022-12-03T18:27:25.543Z,81.95
2022-12-03T18:29:53.536Z,82.09
2022-12-03T18:32:28.817Z,82.19
2022-12-03T18:34:57.602Z,82.17
2022-12-03T18:37:30.444Z,82.39
2022-12-03T18:39:58.698Z,82.34
2022-12-03T18:42:26.965Z,82.24
2022-12-03T18:44:57.109Z,82.16
2022-12-03T18:47:28.623Z,82.32
2022-12-03T18:49:57.267Z,82.46
2022-12-03T18:52:26.075Z,82.38
2022-12-03T18:54:54.153Z,82.50
2022-12-03T18:57:22.021Z,82.56
2022-12-03T18:59:49.633Z,82.33
2022-12-03T19:02:53.812Z,82.61
2022-12-03T19:05:07.263Z,82.79
2022-12-03T19:07:34.892Z,82.91
2022-12-03T19:10:02.674Z,82.97
2022-12-03T19:12:30.951Z,82.82
2022-12-03T19:14:58.641Z,82.82
2022-12-03T19:17:28.067Z,82.78
2022-12-03T19:19:56.210Z,82.79
2022-12-03T19:22:24.697Z,82.64
2022-12-03T19:24:52.380Z,82.84
2022-12-03T19:27:20.421Z,82.91
2022-12-03T19:29:52.320Z,82.93
2022-12-03T19:32:20.243Z,82.78
2022-12-03T19:34:47.889Z,82.63
2022-12-03T19:37:15.727Z,82.52
2022-12-03T19:39:44.195Z,82.54
2022-12-03T19:42:11.979Z,82.67
2022-12-03T19:44:40.232Z,82.52
2022-12-03T19:47:07.992Z,82.51
2022-12-03T19:49:35.708Z,82.77
2022-12-03T19:52:03.356Z,82.50
2022-12-03T19:54:31.007Z,82.35
2022-12-03T19:56:58.649Z,82.44
2022-12-03T19:59:26.256Z,82.18
2022-12-03T20:01:54.060Z,82.20
2022-12-03T20:04:21.883Z,82.45
2022-12-03T20:06:49.691Z,82.28
2022-12-03T20:09:18.806Z,82.37
2022-12-03T20:11:46.968Z,82.36
2022-12-03T20:14:16.935Z,82.32
2022-12-03T20:16:45.944Z,82.41
2022-12-03T20:19:16.933Z,82.24
2022-12-03T20:21:45.396Z,82.19
2022-12-03T20:24:18.712Z,82.17
2022-12-03T20:26:46.624Z,82.24
2022-12-03T20:29:14.302Z,82.19
2022-12-03T20:31:42.204Z,82.19
2022-12-03T20:34:11.686Z,82.27
2022-12-03T20:36:40.464Z,82.28
2022-12-03T20:39:09.485Z,82.47
2022-12-03T20:41:38.015Z,82.37
2022-12-03T20:44:08.492Z,82.42
2022-12-03T20:46:37.450Z,82.63
2022-12-03T20:49:05.960Z,82.55
2022-12-03T20:51:33.827Z,82.47
2022-12-03T20:54:02.269Z,82.70
2022-12-03T20:56:33.419Z,82.55
2022-12-03T20:59:06.375Z,82.95
2022-12-03T21:01:35.385Z,82.73
2022-12-03T21:04:04.443Z,83.00
2022-12-03T21:06:33.439Z,82.86
2022-12-03T21:09:02.069Z,82.86
2022-12-03T21:11:32.620Z,82.80
2022-12-03T21:14:00.938Z,82.87
2022-12-03T21:17:05.729Z,82.76
2022-12-03T21:19:24.300Z,82.73
2022-12-03T21:21:52.020Z,82.60
2022-12-03T21:24:19.732Z,82.60
2022-12-03T21:26:47.367Z,82.72
2022-12-03T21:29:15.072Z,82.67
2022-12-03T21:31:42.788Z,82.61
2022-12-03T21:34:10.493Z,82.58
2022-12-03T21:36:38.300Z,82.41
2022-12-03T21:39:06.885Z,82.26
2022-12-03T21:41:36.551Z,82.36
2022-12-03T21:44:05.237Z,82.08
2022-12-03T21:47:09.315Z,82.23
2022-12-03T21:49:21.413Z,82.25
2022-12-03T21:51:49.631Z,82.18
2022-12-03T21:54:17.306Z,82.27
2022-12-03T21:56:45.422Z,82.02
2022-12-03T21:59:13.167Z,82.02
2022-12-03T22:01:46.777Z,82.04
2022-12-03T22:04:15.018Z,81.97
2022-12-03T22:06:42.688Z,82.08
2022-12-03T22:09:10.600Z,82.10
2022-12-03T22:11:38.330Z,81.86
2022-12-03T22:14:07.876Z,81.79
2022-12-03T22:16:35.764Z,81.75
2022-12-03T22:19:03.521Z,81.79
2022-12-03T22:21:31.433Z,81.62
2022-12-03T22:23:59.258Z,81.76
2022-12-03T22:26:27.069Z,81.95
2022-12-03T22:28:55.083Z,81.90
2022-12-03T22:31:22.936Z,81.93
2022-12-03T22:33:50.972Z,81.87
2022-12-03T22:36:21.638Z,81.81
2022-12-03T22:38:51.439Z,81.75
2022-12-03T22:41:19.902Z,81.79
2022-12-03T22:43:48.619Z,81.67
2022-12-03T22:46:17.432Z,81.81
2022-12-03T22:48:47.403Z,81.74
2022-12-03T22:51:23.483Z,81.97
2022-12-03T22:54:02.616Z,81.80
2022-12-03T22:56:31.434Z,81.55
2022-12-03T22:59:00.744Z,81.67
2022-12-03T23:01:31.937Z,81.90
2022-12-03T23:04:00.486Z,81.69
2022-12-03T23:06:29.729Z,81.60
2022-12-03T23:08:59.012Z,81.80
2022-12-03T23:11:26.900Z,81.76
2022-12-03T23:13:54.821Z,81.68
2022-12-03T23:16:26.113Z,81.81
2022-12-03T23:18:54.069Z,82.00
2022-12-03T23:21:29.538Z,82.01
2022-12-03T23:23:59.719Z,81.86
2022-12-03T23:26:28.094Z,81.89
2022-12-03T23:28:56.098Z,81.91
2022-12-03T23:31:27.274Z,81.80
2022-12-03T23:33:56.318Z,82.02
2022-12-03T23:36:25.794Z,81.67
2022-12-03T23:38:53.720Z,81.69
2022-12-03T23:41:22.602Z,81.68
2022-12-03T23:43:50.694Z,81.25
2022-12-03T23:46:26.985Z,81.45
2022-12-03T23:48:55.128Z,81.31
2022-12-03T23:51:25.554Z,81.37
2022-12-03T23:53:55.526Z,81.45
2022-12-03T23:56:26.159Z,81.20
2022-12-03T23:58:53.920Z,80.83
